Time;durP1;ratioP1;P1;durP2;ratioP2;P2;SDS_P1;SDS_P2;PMS_P1;PMS_P2;Temp;Humidity;BMP_temperature;BMP_pressure;BME280_temperature;BME280_humidity;BME280_pressure;Samples;Min_cycle;Max_cycle;Signal;HPM_P1;HPM_P2
2022/06/11 00:00:03;;;;;;;2.08;1.20;;;21.20;64.00;;;;;;5074214;28;20306;-62
2022/06/11 00:02:28;;;;;;;1.92;1.20;;;21.20;64.00;;;;;;5075172;28;20040;-61
2022/06/11 00:04:54;;;;;;;2.05;1.20;;;21.20;64.00;;;;;;5074013;28;20087;-62
2022/06/11 00:07:21;;;;;;;2.13;1.30;;;21.20;64.00;;;;;;5074543;28;20047;-61
2022/06/11 00:09:48;;;;;;;2.28;1.23;;;21.10;64.00;;;;;;5074146;28;20071;-61
2022/06/11 00:12:13;;;;;;;1.98;1.40;;;21.10;64.00;;;;;;5073049;28;20054;-61
2022/06/11 00:14:39;;;;;;;2.72;1.40;;;21.10;64.00;;;;;;5075002;28;20044;-61
2022/06/11 00:17:06;;;;;;;2.50;1.08;;;21.10;64.00;;;;;;5074565;28;20036;-62
2022/06/11 00:19:32;;;;;;;2.30;1.10;;;21.20;64.00;;;;;;5073998;28;20423;-61
2022/06/11 00:21:58;;;;;;;2.75;1.17;;;21.10;64.00;;;;;;5074286;28;20037;-63
2022/06/11 00:24:24;;;;;;;1.30;1.10;;;21.20;64.10;;;;;;5073948;28;20049;-63
2022/06/11 00:26:50;;;;;;;1.90;1.10;;;21.10;64.00;;;;;;5073905;28;20036;-62
2022/06/11 00:29:17;;;;;;;2.42;1.40;;;21.20;64.10;;;;;;5074857;28;20048;-62
2022/06/11 00:31:42;;;;;;;1.77;1.08;;;21.20;64.10;;;;;;5074099;28;20084;-62
2022/06/11 00:34:08;;;;;;;1.80;1.20;;;21.10;64.00;;;;;;5073784;28;20072;-62
2022/06/11 00:36:34;;;;;;;1.90;1.10;;;21.10;64.00;;;;;;5074733;28;20040;-63
2022/06/11 00:38:59;;;;;;;2.42;1.20;;;21.10;64.00;;;;;;5074540;28;20109;-62
2022/06/11 00:41:27;;;;;;;3.35;1.33;;;21.10;64.00;;;;;;5074119;28;20076;-62
2022/06/11 00:43:55;;;;;;;2.90;1.20;;;21.10;64.00;;;;;;5074141;28;20434;-62
2022/06/11 00:46:56;;;;;;;2.60;1.30;;;21.10;64.00;;;;;;5074344;28;20082;-62
2022/06/11 00:49:34;;;;;;;1.95;1.33;;;21.10;64.00;;;;;;5072765;28;20078;-62
2022/06/11 00:52:10;;;;;;;2.92;1.33;;;21.10;64.10;;;;;;5073838;28;20048;-63
2022/06/11 00:54:35;;;;;;;2.53;1.20;;;21.10;64.00;;;;;;5073211;28;20045;-62
2022/06/11 00:57:01;;;;;;;1.80;1.20;;;21.10;64.10;;;;;;5073013;28;20047;-62
2022/06/11 00:59:39;;;;;;;2.33;1.25;;;21.10;64.10;;;;;;5072465;28;20400;-62
2022/06/11 01:02:04;;;;;;;1.93;1.13;;;21.10;64.00;;;;;;5073496;28;20053;-62
2022/06/11 01:04:47;;;;;;;1.55;1.20;;;21.10;64.10;;;;;;5074174;28;20298;-62
2022/06/11 01:07:16;;;;;;;2.08;1.23;;;21.10;64.10;;;;;;5073572;28;20094;-62
2022/06/11 01:09:50;;;;;;;2.92;1.42;;;21.10;64.10;;;;;;5071710;28;20392;-62
2022/06/11 01:12:24;;;;;;;2.20;1.30;;;21.10;64.10;;;;;;5072758;28;20430;-62
2022/06/11 01:15:02;;;;;;;1.83;1.30;;;21.10;64.10;;;;;;5073433;28;20468;-62
2022/06/11 01:17:36;;;;;;;2.55;1.23;;;21.10;64.10;;;;;;5073035;28;20048;-62
2022/06/11 01:20:23;;;;;;;2.65;1.48;;;21.10;64.10;;;;;;5073741;28;20048;-63
2022/06/11 01:23:17;;;;;;;3.08;1.50;;;21.10;64.10;;;;;;5070860;28;20476;-63
2022/06/11 01:25:59;;;;;;;2.38;1.40;;;21.10;64.10;;;;;;5073438;28;20106;-62
2022/06/11 01:28:38;;;;;;;2.10;1.20;;;21.10;64.20;;;;;;5073153;28;20058;-63
2022/06/11 01:31:20;;;;;;;3.63;1.25;;;21.10;64.20;;;;;;5070813;28;20048;-63
2022/06/11 01:33:48;;;;;;;1.80;1.23;;;21.10;64.20;;;;;;5073312;28;20056;-63
2022/06/11 01:36:14;;;;;;;;;;;21.10;64.20;;;;;;5072846;28;20516;-62
2022/06/11 01:38:50;;;;;;;2.28;1.40;;;21.00;64.10;;;;;;5072799;28;20463;-62
2022/06/11 01:41:33;;;;;;;2.33;1.30;;;21.00;64.20;;;;;;5073708;28;20048;-63
2022/06/11 01:44:03;;;;;;;2.20;1.50;;;21.00;64.20;;;;;;5072350;28;20059;-63
2022/06/11 01:46:32;;;;;;;1.70;1.13;;;21.00;64.20;;;;;;5073146;28;20454;-62
2022/06/11 01:49:05;;;;;;;;;;;21.00;64.20;;;;;;5072889;28;20036;-63
2022/06/11 01:51:52;;;;;;;2.47;1.33;;;21.00;64.10;;;;;;5072461;28;20265;-63
2022/06/11 01:54:30;;;;;;;2.22;1.48;;;21.00;64.20;;;;;;5072306;28;20496;-62
2022/06/11 01:56:58;;;;;;;2.97;1.50;;;21.00;64.20;;;;;;5072851;28;20052;-62
2022/06/11 01:59:36;;;;;;;;;;;21.00;64.20;;;;;;5072799;28;20123;-62
2022/06/11 02:02:19;;;;;;;5.85;1.63;;;21.00;64.20;;;;;;5072456;28;20303;-62
2022/06/11 02:05:09;;;;;;;2.63;1.40;;;21.00;64.20;;;;;;5072209;28;20052;-62
2022/06/11 02:07:39;;;;;;;2.72;1.52;;;21.00;64.20;;;;;;5073185;28;20045;-62
2022/06/11 02:10:12;;;;;;;3.35;1.42;;;21.00;64.20;;;;;;5071744;28;20041;-62
2022/06/11 02:12:54;;;;;;;2.45;1.33;;;21.00;64.30;;;;;;5070955;28;20519;-62
2022/06/11 02:15:29;;;;;;;2.40;1.30;;;21.00;64.20;;;;;;5072057;28;20116;-62
2022/06/11 02:18:03;;;;;;;2.53;1.55;;;21.00;64.30;;;;;;5072323;28;20507;-63
2022/06/11 02:20:34;;;;;;;2.00;1.48;;;21.00;64.30;;;;;;5071677;28;20087;-62
2022/06/11 02:23:20;;;;;;;2.13;1.35;;;21.00;64.30;;;;;;5071740;28;20088;-63
2022/06/11 02:25:48;;;;;;;2.15;1.40;;;21.00;64.30;;;;;;5070313;28;20056;-62
2022/06/11 02:28:15;;;;;;;2.83;1.25;;;21.00;64.30;;;;;;5071877;28;20037;-62
2022/06/11 02:30:42;;;;;;;1.95;1.23;;;21.00;64.40;;;;;;5071261;28;20076;-62
2022/06/11 02:33:10;;;;;;;2.50;1.53;;;21.00;64.30;;;;;;5070887;28;20051;-63
2022/06/11 02:35:38;;;;;;;2.20;1.50;;;21.00;64.30;;;;;;5071830;28;20045;-63
2022/06/11 02:38:08;;;;;;;2.40;1.40;;;21.00;64.30;;;;;;5071166;28;20056;-62
2022/06/11 02:40:37;;;;;;;2.38;1.23;;;21.00;64.40;;;;;;5071973;28;20037;-62
2022/06/11 02:43:03;;;;;;;1.63;1.33;;;21.00;64.30;;;;;;5071262;28;20055;-62
2022/06/11 02:45:28;;;;;;;2.28;1.45;;;21.00;64.40;;;;;;5072757;28;20040;-62
2022/06/11 02:47:54;;;;;;;2.17;1.30;;;21.00;64.40;;;;;;5070867;28;20066;-62
2022/06/11 02:50:27;;;;;;;2.28;1.42;;;21.00;64.40;;;;;;5072639;28;20036;-62
2022/06/11 02:52:54;;;;;;;2.17;1.60;;;21.00;64.40;;;;;;5072261;28;20041;-63
2022/06/11 02:55:19;;;;;;;3.10;1.85;;;21.00;64.40;;;;;;5071775;28;20079;-62
2022/06/11 02:57:45;;;;;;;2.55;1.40;;;21.00;64.40;;;;;;5071883;28;20068;-62
2022/06/11 03:00:14;;;;;;;2.65;1.50;;;21.00;64.40;;;;;;5071315;28;20101;-63
2022/06/11 03:02:40;;;;;;;3.00;1.50;;;21.00;64.40;;;;;;5070437;28;20123;-63
2022/06/11 03:05:06;;;;;;;2.53;1.80;;;21.00;64.40;;;;;;5072534;28;20562;-62
2022/06/11 03:07:31;;;;;;;2.40;1.60;;;21.00;64.40;;;;;;5072433;28;20047;-63
2022/06/11 03:09:57;;;;;;;2.08;1.38;;;21.00;64.40;;;;;;5071148;28;20044;-63
2022/06/11 03:12:22;;;;;;;1.83;1.48;;;21.00;64.40;;;;;;5072398;28;20051;-63
2022/06/11 03:14:48;;;;;;;3.13;1.55;;;21.00;64.40;;;;;;5070903;28;20044;-63
2022/06/11 03:17:17;;;;;;;3.35;1.70;;;20.90;64.40;;;;;;5072232;28;20076;-63
2022/06/11 03:19:43;;;;;;;3.75;1.55;;;21.00;64.40;;;;;;5070823;28;20048;-63
2022/06/11 03:22:08;;;;;;;2.90;1.75;;;20.90;64.40;;;;;;5071376;28;20048;-63
2022/06/11 03:24:35;;;;;;;2.90;1.67;;;20.90;64.40;;;;;;5071999;28;20140;-63
2022/06/11 03:27:00;;;;;;;3.25;1.70;;;21.00;64.50;;;;;;5071659;28;20082;-62
2022/06/11 03:29:26;;;;;;;2.80;1.58;;;20.90;64.40;;;;;;5071504;28;20047;-62
2022/06/11 03:31:51;;;;;;;2.38;1.65;;;20.90;64.50;;;;;;5071289;28;20108;-62
2022/06/11 03:34:17;;;;;;;2.88;1.90;;;20.90;64.50;;;;;;5072260;28;20515;-62
2022/06/11 03:36:43;;;;;;;2.38;1.40;;;20.90;64.50;;;;;;5070985;28;20131;-63
2022/06/11 03:39:11;;;;;;;2.45;1.60;;;21.00;64.50;;;;;;5072133;28;20131;-62
2022/06/11 03:41:37;;;;;;;3.27;1.47;;;20.90;64.50;;;;;;5071874;28;20412;-62
2022/06/11 03:44:03;;;;;;;3.35;1.77;;;20.90;64.50;;;;;;5069598;28;20567;-63
2022/06/11 03:46:29;;;;;;;3.40;1.73;;;20.90;64.50;;;;;;5073434;28;20043;-63
2022/06/11 03:48:55;;;;;;;3.30;1.48;;;20.90;64.50;;;;;;5075291;28;20041;-63
2022/06/11 03:51:20;;;;;;;1.88;1.45;;;20.90;64.50;;;;;;5074858;28;20537;-63
2022/06/11 03:53:46;;;;;;;2.75;1.70;;;20.90;64.50;;;;;;5074776;28;20138;-63
2022/06/11 03:56:12;;;;;;;2.47;1.60;;;20.90;64.40;;;;;;5074687;28;20089;-63
2022/06/11 03:58:38;;;;;;;3.42;1.60;;;20.90;64.40;;;;;;5074799;28;20044;-62
2022/06/11 04:01:19;;;;;;;3.42;1.52;;;20.90;64.40;;;;;;5073505;28;20377;-62
2022/06/11 04:03:53;;;;;;;2.30;1.45;;;20.90;64.40;;;;;;5065371;28;20049;-63
2022/06/11 04:06:21;;;;;;;2.60;1.70;;;20.90;64.40;;;;;;5053297;28;20057;-63
2022/06/11 04:08:47;;;;;;;2.15;1.40;;;20.90;64.50;;;;;;5063502;28;20419;-62
2022/06/11 04:11:12;;;;;;;1.88;1.38;;;20.90;64.50;;;;;;5074806;28;20040;-62
2022/06/11 04:13:39;;;;;;;2.90;1.63;;;20.90;64.50;;;;;;5075337;28;20053;-62
2022/06/11 04:16:05;;;;;;;3.17;1.60;;;20.90;64.50;;;;;;5073748;28;20055;-63
2022/06/11 04:18:33;;;;;;;3.50;1.60;;;20.90;64.60;;;;;;5073178;28;20045;-62
2022/06/11 04:21:00;;;;;;;2.67;1.50;;;20.90;64.50;;;;;;5073867;28;20377;-63
2022/06/11 04:23:29;;;;;;;3.15;1.50;;;21.00;64.60;;;;;;5074464;28;20079;-63
2022/06/11 04:25:58;;;;;;;2.67;1.48;;;21.00;64.60;;;;;;5073891;28;20491;-63
2022/06/11 04:28:26;;;;;;;3.83;1.60;;;21.00;64.60;;;;;;5074017;28;20081;-63
2022/06/11 04:30:51;;;;;;;3.25;1.50;;;21.00;64.70;;;;;;5073079;28;20079;-62
2022/06/11 04:33:17;;;;;;;4.10;1.70;;;21.00;64.70;;;;;;5074162;28;20071;-63
2022/06/11 04:35:42;;;;;;;2.53;1.40;;;21.00;64.60;;;;;;5072516;28;20056;-63
2022/06/11 04:38:08;;;;;;;2.58;1.40;;;21.00;64.50;;;;;;5074896;28;20036;-62
2022/06/11 04:40:34;;;;;;;3.83;1.40;;;21.00;64.50;;;;;;5074136;28;20464;-63
2022/06/11 04:42:59;;;;;;;3.28;1.65;;;20.90;64.50;;;;;;5074568;28;20044;-63
2022/06/11 04:45:25;;;;;;;2.17;1.73;;;21.00;64.50;;;;;;5074672;28;20040;-63
2022/06/11 04:47:50;;;;;;;3.00;1.65;;;21.00;64.50;;;;;;5073353;28;20040;-63
2022/06/11 04:50:17;;;;;;;3.63;1.33;;;21.00;64.60;;;;;;5074619;28;20036;-63
2022/06/11 04:52:43;;;;;;;2.25;1.45;;;21.00;64.50;;;;;;5074346;28;20044;-63
2022/06/11 04:55:09;;;;;;;2.65;1.33;;;21.00;64.50;;;;;;5073563;28;20395;-63
2022/06/11 04:57:35;;;;;;;5.20;1.42;;;21.10;64.60;;;;;;5072465;28;20051;-63
2022/06/11 05:00:00;;;;;;;2.53;1.30;;;21.10;64.60;;;;;;5074027;28;20037;-63
2022/06/11 05:02:26;;;;;;;2.58;1.55;;;21.10;64.50;;;;;;5073415;28;20079;-62
2022/06/11 05:04:52;;;;;;;3.47;1.50;;;21.10;64.50;;;;;;5073744;28;20492;-63
2022/06/11 05:07:19;;;;;;;2.28;1.50;;;21.10;64.50;;;;;;5072963;28;20044;-63
2022/06/11 05:09:44;;;;;;;2.47;1.50;;;21.10;64.60;;;;;;5073993;28;20083;-63
2022/06/11 05:12:11;;;;;;;2.92;1.75;;;21.10;64.50;;;;;;5074054;28;20461;-64
2022/06/11 05:14:36;;;;;;;2.72;1.40;;;21.10;64.50;;;;;;5073419;28;20076;-63
2022/06/11 05:17:02;;;;;;;2.55;1.45;;;21.20;64.50;;;;;;5073633;28;20082;-63
2022/06/11 05:19:28;;;;;;;2.55;1.55;;;21.20;65.10;;;;;;5073976;28;20044;-62
2022/06/11 05:21:53;;;;;;;2.75;1.60;;;21.20;64.50;;;;;;5072744;28;20075;-63
2022/06/11 05:24:22;;;;;;;3.15;1.50;;;21.20;64.50;;;;;;5073700;28;20053;-63
2022/06/11 05:26:53;;;;;;;1.92;1.27;;;21.20;64.40;;;;;;5073359;28;20492;-63
2022/06/11 05:29:25;;;;;;;2.78;1.45;;;21.20;64.40;;;;;;5071927;28;20094;-62
2022/06/11 05:31:51;;;;;;;4.43;1.70;;;21.20;64.40;;;;;;5073211;28;20537;-63
2022/06/11 05:34:17;;;;;;;2.63;1.50;;;21.20;64.40;;;;;;5073332;28;20044;-62
2022/06/11 05:36:42;;;;;;;2.40;1.25;;;21.30;64.40;;;;;;5072626;28;20123;-63
2022/06/11 05:39:08;;;;;;;2.33;1.40;;;21.30;64.40;;;;;;5073662;28;20044;-63
2022/06/11 05:41:33;;;;;;;2.10;1.35;;;21.30;64.40;;;;;;5073720;28;20044;-62
2022/06/11 05:43:59;;;;;;;3.00;1.65;;;21.30;64.30;;;;;;5072365;28;20117;-63
2022/06/11 05:46:25;;;;;;;2.85;1.50;;;21.30;64.30;;;;;;5073368;28;20044;-63
2022/06/11 05:48:54;;;;;;;3.42;1.27;;;21.30;64.30;;;;;;5071992;28;20047;-63
2022/06/11 05:51:22;;;;;;;2.15;1.38;;;21.30;64.30;;;;;;5071668;28;20063;-63
2022/06/11 05:53:48;;;;;;;1.50;1.10;;;21.30;64.30;;;;;;5072670;28;20504;-63
2022/06/11 05:56:15;;;;;;;3.03;1.20;;;21.30;64.30;;;;;;5073252;28;20303;-63
2022/06/11 05:58:43;;;;;;;2.42;1.50;;;21.40;64.30;;;;;;5071063;28;20040;-63
2022/06/11 06:01:09;;;;;;;2.25;1.52;;;21.40;64.30;;;;;;5071774;28;20184;-63
2022/06/11 06:03:34;;;;;;;2.67;1.40;;;21.40;64.30;;;;;;5071355;28;20119;-63
2022/06/11 06:06:00;;;;;;;2.65;1.20;;;21.40;64.30;;;;;;5072620;28;20048;-63
2022/06/11 06:08:26;;;;;;;2.53;1.20;;;21.40;64.30;;;;;;5073004;28;20044;-63
2022/06/11 06:10:51;;;;;;;2.65;1.35;;;21.40;64.30;;;;;;5071694;28;20051;-63
2022/06/11 06:16:01;;;;;;;3.00;1.35;;;21.40;64.30;;;;;;5072713;28;20088;-63
2022/06/11 06:18:27;;;;;;;3.90;1.30;;;21.40;64.30;;;;;;5072142;28;20141;-63
2022/06/11 06:20:52;;;;;;;3.28;1.30;;;21.40;64.90;;;;;;5072676;28;20036;-63
2022/06/11 06:23:18;;;;;;;3.67;1.40;;;21.40;64.20;;;;;;5072790;28;20044;-63
2022/06/11 06:25:44;;;;;;;3.70;1.60;;;21.40;64.30;;;;;;5071994;28;20476;-63
2022/06/11 06:28:09;;;;;;;3.30;1.55;;;21.40;64.30;;;;;;5072870;28;20102;-63
2022/06/11 06:30:35;;;;;;;4.57;1.50;;;21.40;64.20;;;;;;5072852;28;20036;-63
2022/06/11 06:33:00;;;;;;;2.67;1.58;;;21.40;64.20;;;;;;5071690;28;20052;-63
2022/06/11 06:35:26;;;;;;;3.17;1.50;;;21.40;64.20;;;;;;5072564;28;20503;-63
2022/06/11 06:37:51;;;;;;;2.78;1.33;;;21.40;64.10;;;;;;5072216;28;20045;-63
2022/06/11 06:40:17;;;;;;;4.20;1.30;;;21.40;64.20;;;;;;5072074;28;20046;-63
2022/06/11 06:42:42;;;;;;;4.88;1.38;;;21.40;64.20;;;;;;5072331;28;20135;-63
2022/06/11 06:45:08;;;;;;;3.10;1.40;;;21.40;64.20;;;;;;5072828;28;20051;-63
2022/06/11 06:47:34;;;;;;;3.45;1.33;;;21.40;64.20;;;;;;5071752;28;20049;-63
2022/06/11 06:50:00;;;;;;;2.90;1.27;;;21.40;64.20;;;;;;5072275;28;20040;-63
2022/06/11 06:52:25;;;;;;;3.92;1.38;;;21.40;64.20;;;;;;5072729;28;20070;-63
2022/06/11 06:54:51;;;;;;;4.32;1.55;;;21.40;64.20;;;;;;5071541;28;20036;-63
2022/06/11 06:57:16;;;;;;;2.15;1.20;;;21.40;64.20;;;;;;5072318;28;20051;-63
2022/06/11 06:59:42;;;;;;;5.57;1.55;;;21.50;64.20;;;;;;5071895;28;20048;-63
2022/06/11 07:02:10;;;;;;;3.20;1.45;;;21.50;64.20;;;;;;5070589;28;20480;-63
2022/06/11 07:04:35;;;;;;;3.60;1.33;;;21.50;64.20;;;;;;5072086;28;20119;-63
2022/06/11 07:07:01;;;;;;;5.05;1.48;;;21.50;64.10;;;;;;5070623;28;20120;-63
2022/06/11 07:09:26;;;;;;;4.97;1.60;;;21.50;64.10;;;;;;5072456;28;20041;-63
2022/06/11 07:11:52;;;;;;;3.85;1.65;;;21.60;64.20;;;;;;5071952;28;20054;-63
2022/06/11 07:14:18;;;;;;;3.10;1.30;;;21.60;64.10;;;;;;5071644;28;20132;-63
2022/06/11 07:16:46;;;;;;;3.85;1.48;;;21.60;64.10;;;;;;5071981;28;20053;-63
2022/06/11 07:19:16;;;;;;;5.05;1.65;;;21.60;64.00;;;;;;5067262;28;20045;-63
2022/06/11 07:21:43;;;;;;;3.78;1.65;;;21.60;64.00;;;;;;5052349;28;20033;-63
2022/06/11 07:24:12;;;;;;;6.97;1.60;;;21.60;64.00;;;;;;5055100;28;20049;-63
2022/06/11 07:26:40;;;;;;;3.83;1.52;;;21.60;64.00;;;;;;5056088;28;20045;-63
2022/06/11 07:29:28;;;;;;;4.45;1.50;;;21.60;64.00;;;;;;5037645;28;20060;-63
2022/06/11 07:32:05;;;;;;;4.88;1.15;;;21.70;64.00;;;;;;5055597;28;20512;-63
2022/06/11 07:34:31;;;;;;;3.80;1.50;;;21.70;64.00;;;;;;5054986;28;20036;-63
2022/06/11 07:36:57;;;;;;;5.82;1.50;;;21.70;63.90;;;;;;5054930;28;20152;-63
2022/06/11 07:39:22;;;;;;;4.53;1.50;;;21.70;63.90;;;;;;5055650;28;20055;-63
2022/06/11 07:41:48;;;;;;;4.20;1.35;;;21.70;63.90;;;;;;5074391;28;20548;-63
2022/06/11 07:44:13;;;;;;;5.20;1.63;;;21.70;63.80;;;;;;5075182;28;20119;-63
2022/06/11 07:46:39;;;;;;;4.68;1.58;;;21.70;63.80;;;;;;5074285;28;20043;-63
2022/06/11 07:49:04;;;;;;;2.88;1.30;;;21.70;63.80;;;;;;5074934;28;20045;-63
2022/06/11 07:51:30;;;;;;;5.10;1.50;;;21.70;63.80;;;;;;5075733;28;20033;-63
2022/06/11 07:53:56;;;;;;;5.00;1.50;;;21.80;63.80;;;;;;5075443;28;20376;-63
2022/06/11 07:56:21;;;;;;;3.85;1.40;;;21.80;63.80;;;;;;5074881;28;20075;-63
2022/06/11 07:58:49;;;;;;;4.97;1.60;;;21.80;63.70;;;;;;5075064;28;20502;-63
2022/06/11 08:01:15;;;;;;;6.35;2.03;;;21.80;63.70;;;;;;5075643;28;20048;-63
2022/06/11 08:03:40;;;;;;;3.70;1.30;;;21.80;63.70;;;;;;5074335;28;20045;-63
2022/06/11 08:06:07;;;;;;;4.68;1.35;;;21.80;63.70;;;;;;5075145;28;20052;-63
2022/06/11 08:08:32;;;;;;;5.60;1.23;;;21.80;63.60;;;;;;5075436;28;20040;-63
2022/06/11 08:10:59;;;;;;;6.70;1.83;;;21.80;63.60;;;;;;5074310;28;20052;-63
2022/06/11 08:13:25;;;;;;;4.10;1.45;;;21.80;63.60;;;;;;5074980;28;20043;-63
2022/06/11 08:15:52;;;;;;;5.68;1.60;;;21.90;63.60;;;;;;5073393;28;20049;-63
2022/06/11 08:18:18;;;;;;;6.43;1.37;;;21.90;63.60;;;;;;5074426;28;20044;-63
2022/06/11 08:20:51;;;;;;;6.38;1.70;;;21.90;63.50;;;;;;5074529;28;20050;-64
2022/06/11 08:23:17;;;;;;;4.93;1.35;;;21.90;63.50;;;;;;5074053;28;20127;-63
2022/06/11 08:25:43;;;;;;;7.35;1.70;;;21.90;63.50;;;;;;5073026;28;20041;-64
2022/06/11 08:28:11;;;;;;;6.80;1.98;;;21.90;63.50;;;;;;5074742;28;20048;-63
2022/06/11 08:30:36;;;;;;;6.63;1.63;;;21.90;63.50;;;;;;5074831;28;20488;-63
2022/06/11 08:33:02;;;;;;;6.07;2.50;;;21.90;63.40;;;;;;5072155;28;20045;-63
2022/06/11 08:35:28;;;;;;;6.32;1.70;;;21.90;63.40;;;;;;5074655;28;20127;-63
2022/06/11 08:37:54;;;;;;;4.00;1.40;;;21.90;63.40;;;;;;5074291;28;20511;-63
2022/06/11 08:40:24;;;;;;;4.82;1.27;;;21.90;63.30;;;;;;5074036;28;20040;-63
2022/06/11 08:43:12;;;;;;;5.57;1.60;;;21.90;63.30;;;;;;5073159;28;20480;-63
2022/06/11 08:45:48;;;;;;;5.38;1.85;;;22.00;63.30;;;;;;5069749;28;20067;-63
2022/06/11 08:48:49;;;;;;;5.82;1.58;;;21.90;63.30;;;;;;5073547;28;20123;-63
2022/06/11 08:51:35;;;;;;;6.80;1.65;;;21.90;63.30;;;;;;5085676;28;20055;-63
2022/06/11 08:54:04;;;;;;;6.60;1.60;;;22.00;63.30;;;;;;5073270;28;20915;-63
2022/06/11 08:56:46;;;;;;;6.75;2.10;;;21.90;63.30;;;;;;5074278;28;20522;-63
2022/06/11 08:59:27;;;;;;;5.75;1.52;;;22.00;63.30;;;;;;5074106;28;20407;-63
2022/06/11 09:01:52;;;;;;;8.63;1.50;;;22.00;63.30;;;;;;5073919;28;20086;-63
2022/06/11 09:04:25;;;;;;;4.43;1.60;;;22.00;63.30;;;;;;5073452;28;20044;-63
2022/06/11 09:07:04;;;;;;;7.53;2.22;;;22.10;63.20;;;;;;5071798;28;20495;-63
2022/06/11 09:10:09;;;;;;;5.80;1.45;;;22.00;63.20;;;;;;5053017;28;20041;-62
2022/06/11 09:12:49;;;;;;;5.65;1.70;;;22.00;63.20;;;;;;5041748;28;20049;-62
2022/06/11 09:15:47;;;;;;;7.85;2.00;;;22.00;63.20;;;;;;5053431;28;20545;-62
2022/06/11 09:18:27;;;;;;;8.30;1.95;;;22.10;63.20;;;;;;5055400;28;20052;-63
2022/06/11 09:20:57;;;;;;;7.57;1.55;;;22.00;63.10;;;;;;5071779;28;20079;-63
2022/06/11 09:23:48;;;;;;;5.65;1.75;;;22.10;63.20;;;;;;5072644;28;20512;-63
2022/06/11 09:26:22;;;;;;;9.10;1.75;;;22.10;63.20;;;;;;5073955;28;20127;-63
2022/06/11 09:29:49;;;;;;;6.07;1.98;;;22.10;63.10;;;;;;5072736;28;20040;-63
2022/06/11 09:32:22;;;;;;;6.68;1.70;;;22.10;63.10;;;;;;5027601;28;20049;-62
2022/06/11 09:35:01;;;;;;;8.23;1.73;;;22.10;63.00;;;;;;5014044;28;20147;-62
2022/06/11 09:37:36;;;;;;;6.63;1.70;;;22.10;63.00;;;;;;5048284;28;20060;-62
2022/06/11 09:40:38;;;;;;;5.95;1.70;;;22.10;62.90;;;;;;5071891;28;20059;-62
2022/06/11 09:43:38;;;;;;;5.75;1.60;;;22.20;62.90;;;;;;5072332;28;20515;-63
2022/06/11 09:46:17;;;;;;;6.65;1.60;;;22.10;62.90;;;;;;5071263;28;20048;-62
2022/06/11 09:48:46;;;;;;;5.60;1.70;;;22.10;62.80;;;;;;5071201;28;20056;-62
2022/06/11 09:51:24;;;;;;;7.05;1.60;;;22.20;62.80;;;;;;5072734;28;20044;-62
2022/06/11 09:54:28;;;;;;;9.65;1.85;;;22.20;62.80;;;;;;5071574;28;20514;-62
2022/06/11 09:57:09;;;;;;;6.15;1.50;;;22.20;62.70;;;;;;5071889;28;20048;-62
2022/06/11 09:59:38;;;;;;;6.57;1.38;;;22.20;62.70;;;;;;5073299;28;20134;-62
2022/06/11 10:02:06;;;;;;;7.95;2.00;;;22.20;62.60;;;;;;5072216;28;20051;-62
2022/06/11 10:04:36;;;;;;;;;;;22.20;62.60;;;;;;5072745;28;20496;-62
2022/06/11 10:07:06;;;;;;;7.57;1.77;;;22.30;62.60;;;;;;5071481;28;19920;-62
2022/06/11 10:09:51;;;;;;;5.65;1.42;;;22.20;62.60;;;;;;5055875;28;20043;-62
2022/06/11 10:12:33;;;;;;;7.50;1.73;;;22.30;62.50;;;;;;5071076;28;20132;-62
2022/06/11 10:15:17;;;;;;;4.43;1.40;;;22.30;63.00;;;;;;5071473;28;20037;-62
2022/06/11 10:17:53;;;;;;;4.35;1.33;;;22.30;62.40;;;;;;5070555;28;20450;-62
2022/06/11 10:20:41;;;;;;;8.13;2.10;;;22.30;62.40;;;;;;5071779;28;20106;-62
2022/06/11 10:23:14;;;;;;;6.85;1.48;;;22.30;62.40;;;;;;5088538;28;20056;-62
2022/06/11 10:25:54;;;;;;;8.75;1.70;;;22.30;62.40;;;;;;5070702;28;20052;-62
2022/06/11 10:28:33;;;;;;;6.18;1.60;;;22.30;62.30;;;;;;5072801;28;20045;-62
2022/06/11 10:31:22;;;;;;;7.75;1.90;;;22.30;62.20;;;;;;5071335;28;20037;-62
2022/06/11 10:33:57;;;;;;;6.80;1.63;;;22.30;62.20;;;;;;5071260;28;20044;-62
2022/06/11 10:36:39;;;;;;;4.85;1.38;;;22.30;62.20;;;;;;5072875;28;20146;-62
2022/06/11 10:39:04;;;;;;;5.35;1.50;;;22.40;62.20;;;;;;5055864;28;20476;-63
2022/06/11 10:41:38;;;;;;;6.05;1.50;;;22.40;62.10;;;;;;5072375;28;20055;-63
2022/06/11 10:44:16;;;;;;;4.90;1.45;;;22.40;62.00;;;;;;5071182;28;20044;-63
2022/06/11 10:46:41;;;;;;;7.53;2.17;;;22.40;61.90;;;;;;5070401;28;20072;-63
2022/06/11 10:49:15;;;;;;;6.07;1.92;;;22.40;61.90;;;;;;5071193;28;20083;-63
2022/06/11 10:51:41;;;;;;;7.47;1.70;;;22.40;61.70;;;;;;5071068;28;20043;-63
2022/06/11 10:54:09;;;;;;;8.18;1.92;;;22.40;61.50;;;;;;5070565;28;20119;-63
2022/06/11 10:56:43;;;;;;;5.78;1.77;;;22.40;61.40;;;;;;5071902;28;20040;-63
2022/06/11 10:59:19;;;;;;;5.95;1.40;;;22.40;61.30;;;;;;5070169;28;20087;-63
2022/06/11 11:01:48;;;;;;;6.10;1.70;;;22.40;61.30;;;;;;5055010;28;20044;-63
2022/06/11 11:04:13;;;;;;;7.22;1.60;;;22.40;61.20;;;;;;5071118;28;20032;-63
2022/06/11 11:06:39;;;;;;;6.93;1.60;;;22.40;61.10;;;;;;5071778;28;20580;-63
2022/06/11 11:09:06;;;;;;;8.32;1.60;;;22.40;61.10;;;;;;5071222;28;20040;-63
2022/06/11 11:11:41;;;;;;;8.32;1.50;;;22.40;60.90;;;;;;5072205;28;20119;-63
2022/06/11 11:14:19;;;;;;;6.90;1.50;;;22.40;60.80;;;;;;5071015;28;20048;-62
2022/06/11 11:16:48;;;;;;;5.28;1.60;;;22.40;60.70;;;;;;5071881;28;20049;-62
2022/06/11 11:19:27;;;;;;;5.03;1.48;;;22.40;60.70;;;;;;5071627;28;20388;-63
2022/06/11 11:22:03;;;;;;;8.73;1.63;;;22.40;60.60;;;;;;5069877;28;20054;-63
2022/06/11 11:24:37;;;;;;;6.43;1.63;;;22.40;60.60;;;;;;5071597;28;20048;-63
2022/06/11 11:27:23;;;;;;;9.30;1.52;;;22.40;60.60;;;;;;5070319;28;20101;-62
2022/06/11 11:29:53;;;;;;;5.40;1.60;;;22.40;60.60;;;;;;5070925;28;20064;-63
2022/06/11 11:32:36;;;;;;;5.20;1.35;;;22.50;60.60;;;;;;5072358;28;20036;-63
2022/06/11 11:35:22;;;;;;;7.75;1.30;;;22.40;60.60;;;;;;5071289;28;20040;-62
2022/06/11 11:38:11;;;;;;;6.28;1.88;;;22.40;60.50;;;;;;5071887;28;20093;-63
2022/06/11 11:40:49;;;;;;;8.40;1.42;;;22.40;60.50;;;;;;5071983;28;20044;-62
2022/06/11 11:43:14;;;;;;;;;;;22.50;60.40;;;;;;5071897;28;20049;-62
2022/06/11 11:45:48;;;;;;;8.82;1.63;;;22.40;60.50;;;;;;5072076;28;20024;-62
2022/06/11 11:48:22;;;;;;;10.27;1.90;;;22.40;60.50;;;;;;5071102;28;20131;-62
2022/06/11 11:50:50;;;;;;;6.28;1.23;;;22.40;60.40;;;;;;5070027;28;20040;-62
2022/06/11 11:53:19;;;;;;;6.38;2.05;;;22.50;60.40;;;;;;5070419;28;20062;-63
2022/06/11 11:55:53;;;;;;;7.15;1.40;;;22.50;60.40;;;;;;5071033;28;20514;-63
2022/06/11 11:58:32;;;;;;;7.38;1.98;;;22.50;60.40;;;;;;5070734;28;20048;-63
2022/06/11 12:01:06;;;;;;;5.95;1.30;;;22.40;60.40;;;;;;5072020;28;20048;-63
2022/06/11 12:03:47;;;;;;;7.22;1.40;;;22.50;60.40;;;;;;5069630;28;20498;-63
2022/06/11 12:06:15;;;;;;;6.28;1.48;;;22.50;60.30;;;;;;5069602;28;20120;-63
2022/06/11 12:08:43;;;;;;;5.60;1.45;;;22.50;60.30;;;;;;5075088;28;20041;-63
2022/06/11 12:11:34;;;;;;;7.38;1.52;;;22.50;60.20;;;;;;5073467;28;20040;-63
2022/06/11 12:14:11;;;;;;;8.63;1.55;;;22.50;60.20;;;;;;5073552;28;20059;-63
2022/06/11 12:16:42;;;;;;;7.45;1.50;;;22.50;60.20;;;;;;5074762;28;20044;-63
2022/06/11 12:19:20;;;;;;;4.88;1.35;;;22.50;60.20;;;;;;5075273;28;20097;-63
2022/06/11 12:21:50;;;;;;;5.88;1.48;;;22.50;60.20;;;;;;5073453;28;20033;-63
2022/06/11 12:24:18;;;;;;;5.53;1.20;;;22.50;60.10;;;;;;5073037;28;20056;-63
2022/06/11 12:26:50;;;;;;;7.80;1.58;;;22.50;60.10;;;;;;5073519;28;20418;-63
2022/06/11 12:29:23;;;;;;;6.38;1.55;;;22.50;60.10;;;;;;5073879;28;20080;-63
2022/06/11 12:31:48;;;;;;;6.20;1.40;;;22.60;60.20;;;;;;5073847;28;20051;-63
2022/06/11 12:34:18;;;;;;;3.17;1.35;;;22.50;60.10;;;;;;5074521;28;20135;-63
2022/06/11 12:36:55;;;;;;;5.55;1.27;;;22.50;60.00;;;;;;5073569;28;20110;-63
2022/06/11 12:39:37;;;;;;;4.65;1.48;;;22.50;60.00;;;;;;5072474;28;20105;-63
2022/06/11 12:42:10;;;;;;;8.48;1.40;;;22.60;60.00;;;;;;5072751;28;20127;-62
2022/06/11 12:44:54;;;;;;;6.70;1.52;;;22.50;60.00;;;;;;5073438;28;20083;-63
2022/06/11 12:47:46;;;;;;;5.93;1.17;;;22.60;60.00;;;;;;5074585;28;20040;-63
2022/06/11 12:50:42;;;;;;;6.20;1.80;;;22.60;59.80;;;;;;5074828;28;20072;-63
2022/06/11 12:53:12;;;;;;;5.13;1.40;;;22.60;59.80;;;;;;5075627;28;20072;-63
2022/06/11 12:55:53;;;;;;;8.07;1.52;;;22.60;59.80;;;;;;5073090;28;20429;-63
2022/06/11 12:58:57;;;;;;;6.70;1.40;;;22.60;59.90;;;;;;5074140;28;20033;-63
2022/06/11 13:01:27;;;;;;;6.85;1.73;;;22.60;59.70;;;;;;5074540;28;20059;-63
2022/06/11 13:04:08;;;;;;;7.15;1.50;;;22.60;59.70;;;;;;5073165;28;20388;-63
2022/06/11 13:06:52;;;;;;;5.53;1.30;;;22.70;59.70;;;;;;5071340;28;20047;-63
2022/06/11 13:09:36;;;;;;;6.15;1.23;;;22.60;59.60;;;;;;5073475;28;20086;-63
2022/06/11 13:12:27;;;;;;;6.65;1.40;;;22.70;59.60;;;;;;5073966;28;20040;-63